Time;durP1;ratioP1;P1;durP2;ratioP2;P2;SDS_P1;SDS_P2;PMS_P1;PMS_P2;Temp;Humidity;BMP_temperature;BMP_pressure;BME280_temperature;BME280_humidity;BME280_pressure;Samples;Min_cycle;Max_cycle;Signal;HPM_P1;HPM_P2
2022/10/29 06:36:15;;;;;;;5.80;2.78;;;13.10;93.40;;;;;;6056854;22;20275;-86
2022/10/29 06:42:04;;;;;;;12.23;2.83;;;13.00;94.40;;;;;;5082419;28;20164;-85
2022/10/29 06:45:23;;;;;;;6.68;2.78;;;13.00;94.40;;;;;;5081535;28;20201;-88
2022/10/29 06:51:25;;;;;;;12.00;2.85;;;12.90;94.40;;;;;;5068961;28;20206;-86
2022/10/29 06:53:54;;;;;;;8.70;3.33;;;12.90;94.70;;;;;;5072777;28;20296;-87
2022/10/29 06:56:35;;;;;;;7.43;3.00;;;13.00;95.30;;;;;;5075524;28;20235;-88
2022/10/29 06:59:02;;;;;;;8.70;3.55;;;13.10;94.60;;;;;;5067552;28;20247;-88
2022/10/29 07:01:31;;;;;;;12.70;3.47;;;13.30;94.40;;;;;;5065380;28;20633;-89
2022/10/29 07:03:58;;;;;;;7.30;3.50;;;13.30;93.80;;;;;;5063721;28;20218;-90
2022/10/29 07:06:27;;;;;;;9.18;3.75;;;13.50;93.90;;;;;;5067258;28;20316;-90
2022/10/29 07:08:54;;;;;;;13.65;3.67;;;13.50;93.50;;;;;;5064149;28;20691;-89
2022/10/29 07:11:21;;;;;;;7.15;3.45;;;13.50;93.20;;;;;;5066607;28;20237;-89
2022/10/29 07:14:11;;;;;;;9.13;3.22;;;13.60;93.40;;;;;;5066246;28;20747;-90
2022/10/29 07:16:42;;;;;;;12.07;3.50;;;13.80;92.50;;;;;;5071878;28;20280;-91
2022/10/29 07:19:17;;;;;;;10.50;3.30;;;14.00;91.80;;;;;;5072228;28;20241;-89
2022/10/29 07:25:30;;;;;;;14.07;3.50;;;14.50;91.60;;;;;;5078550;28;20199;-89
2022/10/29 07:31:30;;;;;;;11.98;3.50;;;15.20;91.00;;;;;;5078139;28;20354;-89
2022/10/29 07:34:12;;;;;;;11.85;3.05;;;15.80;89.30;;;;;;5075846;28;20280;-89
2022/10/29 07:43:52;;;;;;;9.57;3.30;;;16.60;78.40;;;;;;5068757;28;20232;-88
2022/10/29 07:46:19;;;;;;;9.75;2.65;;;16.70;73.20;;;;;;5078148;28;20300;-87
2022/10/29 07:52:14;;;;;;;10.60;3.20;;;17.00;67.80;;;;;;5076993;28;20209;-87
2022/10/29 07:58:47;;;;;;;13.75;2.97;;;17.10;60.20;;;;;;5071164;28;20173;-88
2022/10/29 08:01:32;;;;;;;6.03;2.63;;;17.10;66.50;;;;;;5063336;28;20691;-88
2022/10/29 08:04:18;;;;;;;11.25;3.20;;;17.10;62.90;;;;;;5070190;28;20233;-88
2022/10/29 08:07:35;;;;;;;8.68;2.83;;;17.10;68.00;;;;;;5071868;28;20229;-87
2022/10/29 08:13:24;;;;;;;8.40;3.08;;;17.20;65.30;;;;;;5058888;28;20200;-88
2022/10/29 08:16:41;;;;;;;10.18;3.03;;;17.30;64.30;;;;;;5070052;28;20288;-88
2022/10/29 08:19:53;;;;;;;10.52;3.00;;;17.30;63.30;;;;;;5069081;28;20224;-86
2022/10/29 08:23:05;;;;;;;8.10;3.10;;;17.50;61.70;;;;;;5063100;28;20210;-87
2022/10/29 08:28:55;;;;;;;11.35;2.78;;;17.70;61.70;;;;;;5070136;28;20196;-87
2022/10/29 08:35:30;;;;;;;10.35;3.05;;;17.90;63.70;;;;;;5071636;28;20540;-87
2022/10/29 08:38:23;;;;;;;10.73;3.20;;;17.90;63.00;;;;;;5066335;28;20214;-88
2022/10/29 08:48:11;;;;;;;9.95;3.50;;;18.30;59.80;;;;;;5074454;28;20188;-88
2022/10/29 08:58:19;;;;;;;12.07;3.78;;;18.60;56.00;;;;;;5080029;28;20192;-88
2022/10/29 09:16:41;;;;;;;11.55;3.60;;;19.40;48.10;;;;;;5061867;28;20253;-89
2022/10/29 09:19:26;;;;;;;7.10;3.53;;;19.70;46.10;;;;;;5061501;28;20549;-88
2022/10/29 09:22:14;;;;;;;21.25;13.43;;;19.90;44.20;;;;;;5063380;28;20732;-89
2022/10/29 09:28:23;;;;;;;18.67;12.73;;;20.10;39.00;;;;;;5051666;28;20193;-85
2022/10/29 09:37:43;;;;;;;16.15;4.28;;;23.10;34.60;;;;;;5044013;28;20189;-87
2022/10/29 09:40:36;;;;;;;17.58;3.80;;;24.80;25.20;;;;;;5047998;28;20288;-87
2022/10/29 09:43:31;;;;;;;10.05;3.65;;;25.50;21.70;;;;;;5058693;28;20204;-89
2022/10/29 09:46:08;;;;;;;14.15;4.07;;;26.10;18.90;;;;;;5059075;28;20613;-88
2022/10/29 09:48:56;;;;;;;10.85;4.75;;;26.30;18.50;;;;;;5055911;28;20240;-89
2022/10/29 09:51:37;;;;;;;10.23;4.38;;;26.30;18.00;;;;;;5053251;28;20641;-86
2022/10/29 09:54:19;;;;;;;14.23;3.85;;;26.40;18.20;;;;;;5048116;28;20257;-86
2022/10/29 09:56:54;;;;;;;13.45;4.25;;;26.90;16.40;;;;;;5050856;28;20228;-88
2022/10/29 09:59:29;;;;;;;11.77;3.80;;;26.70;15.60;;;;;;5051099;28;20215;-87
2022/10/29 10:01:57;;;;;;;11.80;4.25;;;27.10;15.20;;;;;;5045848;28;20205;-87
2022/10/29 10:04:30;;;;;;;11.82;3.80;;;27.00;15.20;;;;;;5046355;28;20217;-88
2022/10/29 10:07:08;;;;;;;19.20;5.93;;;27.10;15.20;;;;;;5045752;28;20366;-90
2022/10/29 10:13:04;;;;;;;12.60;3.63;;;27.40;13.80;;;;;;5043722;28;20710;-88
2022/10/29 10:15:37;;;;;;;9.60;3.60;;;27.60;14.30;;;;;;5051213;28;20657;-88
2022/10/29 10:18:06;;;;;;;11.02;3.85;;;27.50;15.40;;;;;;5050555;28;20270;-90
2022/10/29 10:20:44;;;;;;;11.98;4.20;;;27.50;14.30;;;;;;5050208;28;20241;-87
2022/10/29 10:23:23;;;;;;;8.52;3.85;;;27.80;13.20;;;;;;5041344;28;20209;-89
2022/10/29 10:25:53;;;;;;;14.57;4.20;;;27.80;14.00;;;;;;5050981;28;20205;-88
2022/10/29 10:28:23;;;;;;;11.98;3.80;;;27.80;15.50;;;;;;5048097;28;20251;-89
2022/10/29 10:31:08;;;;;;;16.40;5.15;;;27.40;15.30;;;;;;5043898;28;20210;-89
2022/10/29 10:33:37;;;;;;;14.02;4.43;;;27.70;15.50;;;;;;5042964;28;20233;-87
2022/10/29 10:36:06;;;;;;;12.23;4.15;;;27.90;14.40;;;;;;5045141;28;20200;-88
2022/10/29 10:38:55;;;;;;;14.55;4.00;;;28.40;13.60;;;;;;5051980;28;20292;-87
2022/10/29 10:41:24;;;;;;;10.52;4.15;;;28.40;11.40;;;;;;5056760;28;20285;-88
2022/10/29 10:43:57;;;;;;;11.07;3.97;;;28.10;12.10;;;;;;5055231;28;20288;-88
2022/10/29 10:46:49;;;;;;;15.27;4.15;;;27.60;13.70;;;;;;5053954;28;20735;-87
2022/10/29 10:49:30;;;;;;;13.43;3.60;;;27.40;14.40;;;;;;5057947;28;20642;-90
2022/10/29 10:52:06;;;;;;;11.52;3.55;;;26.80;15.00;;;;;;5065303;28;20213;-88
2022/10/29 10:54:56;;;;;;;10.82;3.72;;;26.30;15.90;;;;;;5052445;28;20300;-86
2022/10/29 10:57:50;;;;;;;15.82;3.97;;;25.90;16.60;;;;;;5060126;28;20201;-85
2022/10/29 11:00:27;;;;;;;15.40;3.33;;;25.50;17.30;;;;;;5052884;28;20197;-85
2022/10/29 11:03:06;;;;;;;9.95;3.42;;;25.30;17.20;;;;;;5044919;28;20727;-86
2022/10/29 11:09:05;;;;;;;12.13;3.22;;;25.00;18.40;;;;;;5066606;28;20232;-85
2022/10/29 11:11:39;;;;;;;16.70;3.58;;;25.00;18.10;;;;;;5056819;28;20283;-82
2022/10/29 11:14:12;;;;;;;13.00;3.53;;;24.90;18.30;;;;;;5050641;28;20237;-81
2022/10/29 11:16:45;;;;;;;9.68;3.25;;;24.70;17.60;;;;;;5042439;28;20564;-82
2022/10/29 11:19:20;;;;;;;17.80;3.58;;;24.70;18.40;;;;;;5048673;28;20300;-91
2022/10/29 11:22:00;;;;;;;11.77;3.33;;;24.70;18.50;;;;;;5043270;28;20305;-85
2022/10/29 11:24:37;;;;;;;12.75;3.55;;;24.70;18.00;;;;;;5044602;28;20220;-82
2022/10/29 11:27:34;;;;;;;11.82;3.35;;;24.70;18.30;;;;;;5049695;28;20205;-85
2022/10/29 11:30:04;;;;;;;14.00;3.83;;;24.40;18.50;;;;;;5046602;28;20301;-88
2022/10/29 11:32:47;;;;;;;10.65;3.15;;;24.50;19.50;;;;;;5048563;28;20289;-85
2022/10/29 11:35:39;;;;;;;16.23;3.65;;;24.40;18.90;;;;;;5049793;28;20217;-82
2022/10/29 11:38:30;;;;;;;17.10;3.83;;;24.60;17.90;;;;;;5050499;28;20728;-85
2022/10/29 11:41:04;;;;;;;11.60;3.33;;;24.50;17.60;;;;;;5051895;28;20628;-87
2022/10/29 11:43:33;;;;;;;12.98;3.45;;;24.10;18.80;;;;;;5052891;28;20224;-86
2022/10/29 11:46:07;;;;;;;11.70;3.20;;;23.90;18.80;;;;;;5050426;28;20288;-86
2022/10/29 11:48:52;;;;;;;11.15;3.42;;;24.10;20.10;;;;;;5051112;28;20198;-87
2022/10/29 11:51:28;;;;;;;10.77;3.38;;;24.30;18.20;;;;;;5045198;28;20680;-90
2022/10/29 11:54:04;;;;;;;14.57;3.30;;;24.40;18.60;;;;;;5047931;28;20202;-85
2022/10/29 11:56:46;;;;;;;11.82;3.45;;;24.30;18.20;;;;;;5045713;28;20195;-88
2022/10/29 11:59:31;;;;;;;9.30;3.22;;;24.40;18.30;;;;;;5043848;28;20222;-86
2022/10/29 12:02:10;;;;;;;12.27;3.78;;;24.60;18.40;;;;;;5043501;28;20206;-85
2022/10/29 12:04:48;;;;;;;14.73;3.22;;;24.70;19.20;;;;;;5045232;28;20308;-83
2022/10/29 12:07:25;;;;;;;9.00;3.67;;;24.80;18.30;;;;;;5047153;28;20289;-85
2022/10/29 12:10:17;;;;;;;9.82;3.17;;;24.90;17.40;;;;;;5046899;28;20301;-84
2022/10/29 12:12:51;;;;;;;11.77;3.33;;;25.00;17.50;;;;;;5056054;28;20289;-83
2022/10/29 12:15:24;;;;;;;14.38;3.50;;;24.70;18.00;;;;;;5051889;28;20236;-83
2022/10/29 12:18:01;;;;;;;13.02;3.33;;;24.60;18.60;;;;;;5045078;28;20305;-83
2022/10/29 12:20:37;;;;;;;8.23;3.17;;;24.60;19.20;;;;;;5045537;28;20205;-87
2022/10/29 12:23:24;;;;;;;9.60;3.30;;;24.40;18.70;;;;;;5031832;28;20217;-87
2022/10/29 12:29:31;;;;;;;12.00;3.55;;;24.40;18.10;;;;;;5052108;28;20220;-82
2022/10/29 12:32:07;;;;;;;11.93;3.55;;;24.40;20.20;;;;;;5047569;28;20216;-83
2022/10/29 12:34:42;;;;;;;15.95;3.42;;;24.50;19.10;;;;;;5050180;28;20292;-87
2022/10/29 12:37:17;;;;;;;14.48;3.53;;;24.50;17.60;;;;;;5042119;28;20975;-82
2022/10/29 12:39:49;;;;;;;11.35;3.47;;;24.50;18.00;;;;;;5041764;28;20325;-86
2022/10/29 12:42:22;;;;;;;16.00;4.47;;;24.50;18.60;;;;;;5049158;28;20202;-83
2022/10/29 12:44:59;;;;;;;12.57;4.20;;;24.50;19.10;;;;;;5050114;28;20225;-88
2022/10/29 12:47:36;;;;;;;16.08;3.78;;;24.40;18.70;;;;;;5041969;28;20197;-85
2022/10/29 12:50:13;;;;;;;10.77;3.55;;;24.40;18.70;;;;;;5044780;28;20204;-83
2022/10/29 12:52:58;;;;;;;13.57;3.63;;;24.50;18.50;;;;;;5044384;28;20720;-85
2022/10/29 12:55:30;;;;;;;11.80;3.60;;;24.60;19.00;;;;;;5046997;28;20231;-84
2022/10/29 12:58:35;;;;;;;12.52;3.55;;;24.60;18.60;;;;;;5057187;28;20194;-84
2022/10/29 13:08:28;;;;;;;13.63;2.95;;;24.50;18.30;;;;;;5058555;28;20259;-84
2022/10/29 13:11:43;;;;;;;13.45;3.20;;;24.40;17.90;;;;;;5041680;28;20221;-84
2022/10/29 13:21:06;;;;;;;11.00;3.28;;;24.30;18.30;;;;;;5060143;28;20205;-87
2022/10/29 13:27:35;;;;;;;9.90;3.47;;;24.30;18.00;;;;;;5047671;28;20193;-88
2022/10/29 13:30:24;;;;;;;10.50;3.67;;;24.30;18.00;;;;;;4974593;28;20206;-84
2022/10/29 13:32:51;;;;;;;12.95;3.40;;;24.30;18.40;;;;;;4971830;28;20687;-87
2022/10/29 13:35:52;;;;;;;14.98;3.55;;;24.30;18.60;;;;;;4969688;28;20259;-84
2022/10/29 13:39:05;;;;;;;12.73;3.83;;;24.30;19.40;;;;;;4970609;28;20227;-83
2022/10/29 13:41:59;;;;;;;10.98;3.40;;;24.20;18.60;;;;;;4968994;28;20291;-88
2022/10/29 13:44:28;;;;;;;10.93;3.40;;;24.20;18.60;;;;;;4960438;28;20212;-89
2022/10/29 13:47:19;;;;;;;15.02;3.30;;;24.10;18.80;;;;;;4966492;28;20212;-84
2022/10/29 13:49:49;;;;;;;11.43;3.22;;;24.00;19.30;;;;;;4972398;28;20571;-85
2022/10/29 13:52:18;;;;;;;11.77;3.60;;;23.90;20.40;;;;;;4962646;28;20296;-82
2022/10/29 13:55:35;;;;;;;11.52;3.45;;;23.90;23.30;;;;;;4981160;28;20224;-83
2022/10/29 13:58:17;;;;;;;12.90;3.63;;;24.00;24.10;;;;;;4978485;28;20232;-83
2022/10/29 14:32:40;;;;;;;14.10;3.38;;;23.60;29.00;;;;;;5078357;28;20226;-84
2022/10/29 14:35:29;;;;;;;14.80;3.63;;;23.60;29.30;;;;;;5081719;28;20213;-84
2022/10/29 14:38:13;;;;;;;12.85;3.40;;;23.50;30.30;;;;;;5081740;28;20723;-83
2022/10/29 14:41:12;;;;;;;11.75;3.03;;;23.40;30.60;;;;;;5085678;28;20255;-84
2022/10/29 14:43:43;;;;;;;9.85;3.40;;;23.30;31.00;;;;;;5068886;28;20197;-84
2022/10/29 14:46:37;;;;;;;14.68;3.83;;;23.30;31.40;;;;;;5085404;28;20209;-83
2022/10/29 14:49:14;;;;;;;12.18;3.15;;;23.10;32.40;;;;;;5084858;28;20288;-84
2022/10/29 14:55:25;;;;;;;8.90;3.35;;;22.80;30.10;;;;;;5071439;28;20693;-83
2022/10/29 14:58:48;;;;;;;15.45;4.10;;;22.70;28.60;;;;;;5083420;28;20288;-84
2022/10/29 15:01:59;;;;;;;12.95;3.50;;;22.50;28.00;;;;;;5077630;28;20236;-84
2022/10/29 15:04:57;;;;;;;10.05;3.58;;;22.40;29.10;;;;;;5083536;28;20229;-83
2022/10/29 15:07:33;;;;;;;14.48;3.47;;;22.20;28.40;;;;;;5052562;28;20228;-84
2022/10/29 15:10:25;;;;;;;15.65;4.07;;;22.10;28.70;;;;;;5061666;28;20539;-84
2022/10/29 15:16:47;;;;;;;16.50;5.00;;;21.90;29.20;;;;;;5063106;28;20220;-84
2022/10/29 15:29:38;;;;;;;13.82;3.42;;;21.40;33.20;;;;;;5046051;28;20205;-87
2022/10/29 15:32:14;;;;;;;12.05;3.70;;;21.30;34.40;;;;;;5057658;28;20225;-88
2022/10/29 15:35:09;;;;;;;14.65;3.95;;;21.10;35.80;;;;;;5056029;28;20186;-87
2022/10/29 15:41:30;;;;;;;12.40;3.90;;;20.70;38.40;;;;;;5057020;28;20595;-87
2022/10/29 15:47:32;;;;;;;10.52;3.60;;;20.40;40.30;;;;;;5038864;28;20170;-87
2022/10/29 15:50:47;;;;;;;10.85;3.50;;;20.30;41.70;;;;;;5051029;28;20200;-87
2022/10/29 15:53:18;;;;;;;10.43;3.53;;;20.10;42.40;;;;;;5051978;28;20202;-90
2022/10/29 15:55:52;;;;;;;9.65;3.50;;;19.90;44.20;;;;;;5048380;28;20293;-90
2022/10/29 15:58:22;;;;;;;9.10;3.67;;;19.80;44.60;;;;;;5052683;28;20672;-90
2022/10/29 16:00:49;;;;;;;11.88;3.78;;;19.60;46.20;;;;;;5061224;28;20259;-90
2022/10/29 16:03:21;;;;;;;9.23;3.55;;;19.50;47.80;;;;;;5053029;28;20226;-90
2022/10/29 16:05:49;;;;;;;11.98;3.55;;;19.40;49.80;;;;;;5054431;28;20297;-92
2022/10/29 16:08:24;;;;;;;15.25;4.30;;;19.40;49.70;;;;;;5058142;28;20217;-90
2022/10/29 16:10:53;;;;;;;13.20;6.03;;;19.30;51.00;;;;;;5053009;28;20240;-91
2022/10/29 16:13:21;;;;;;;11.82;4.25;;;19.20;50.60;;;;;;5049513;28;20289;-89
2022/10/29 16:15:48;;;;;;;9.95;4.10;;;19.10;51.40;;;;;;5050918;28;20260;-89
2022/10/29 16:18:15;;;;;;;62.60;54.55;;;19.00;54.20;;;;;;5047985;28;20257;-90
2022/10/29 16:20:44;;;;;;;21.77;14.15;;;18.90;54.90;;;;;;5049284;28;20202;-88
2022/10/29 16:23:12;;;;;;;20.80;12.43;;;18.80;54.80;;;;;;5055023;28;20285;-90
2022/10/29 16:25:39;;;;;;;20.65;12.77;;;18.70;54.80;;;;;;5048740;28;20226;-90
2022/10/29 16:28:06;;;;;;;13.50;5.78;;;18.60;57.40;;;;;;5056107;28;20273;-91
2022/10/29 16:30:34;;;;;;;17.83;5.32;;;18.50;58.20;;;;;;5055817;28;20255;-89
2022/10/29 16:33:06;;;;;;;10.95;5.40;;;18.40;61.10;;;;;;5059781;28;20285;-90
2022/10/29 16:35:33;;;;;;;9.55;4.57;;;18.30;60.60;;;;;;5056726;28;20301;-91
2022/10/29 16:38:01;;;;;;;12.30;4.65;;;18.20;60.90;;;;;;5055390;28;20300;-89
2022/10/29 16:40:29;;;;;;;19.20;5.07;;;18.20;63.90;;;;;;5049238;28;20293;-89
2022/10/29 16:42:56;;;;;;;15.27;6.40;;;18.10;62.10;;;;;;5050054;28;20218;-91
2022/10/29 16:45:26;;;;;;;15.82;5.32;;;18.10;64.20;;;;;;5050015;28;20390;-89
2022/10/29 16:47:53;;;;;;;11.00;5.93;;;18.10;63.60;;;;;;5058929;28;20223;-88
2022/10/29 16:50:23;;;;;;;12.07;5.28;;;18.00;63.40;;;;;;5057939;28;20213;-87
2022/10/29 16:52:57;;;;;;;15.77;4.82;;;18.00;66.40;;;;;;5048884;28;20563;-88
2022/10/29 16:55:26;;;;;;;14.52;4.88;;;17.90;68.20;;;;;;5044658;28;20218;-88
2022/10/29 16:57:53;;;;;;;11.75;5.25;;;17.90;67.60;;;;;;5048832;28;20288;-88
2022/10/29 17:00:21;;;;;;;13.35;5.10;;;17.70;70.00;;;;;;5050161;28;20301;-86
2022/10/29 17:02:47;;;;;;;11.70;5.53;;;17.70;71.50;;;;;;5051667;28;20329;-90
2022/10/29 17:05:15;;;;;;;14.40;7.60;;;17.60;73.20;;;;;;5255433;22;20341;-86
2022/10/29 17:07:54;;;;;;;17.55;5.72;;;17.60;76.20;;;;;;5045540;28;20282;-88
2022/10/29 17:10:21;;;;;;;14.38;5.78;;;17.50;76.10;;;;;;5049824;28;20293;-86
2022/10/29 17:12:50;;;;;;;16.05;7.47;;;17.40;76.20;;;;;;5045413;28;20198;-86
2022/10/29 17:15:17;;;;;;;13.80;6.22;;;17.30;78.30;;;;;;5049594;28;20225;-86
2022/10/29 17:17:48;;;;;;;11.65;5.55;;;17.20;78.80;;;;;;5051835;28;20305;-86
2022/10/29 17:20:15;;;;;;;13.27;5.93;;;17.10;78.80;;;;;;5050481;28;20201;-88
2022/10/29 17:22:48;;;;;;;13.18;5.53;;;17.10;80.00;;;;;;5046242;28;20285;-88
2022/10/29 17:25:15;;;;;;;13.07;5.82;;;17.00;80.50;;;;;;5051031;28;20292;-87
2022/10/29 17:27:43;;;;;;;15.57;5.90;;;16.90;80.70;;;;;;5053348;28;20201;-87
2022/10/29 17:30:11;;;;;;;15.60;5.88;;;17.00;80.50;;;;;;5048532;28;20644;-90
2022/10/29 17:32:38;;;;;;;16.50;5.85;;;17.00;80.30;;;;;;5040521;28;20272;-90
2022/10/29 17:35:06;;;;;;;12.88;5.60;;;17.00;81.00;;;;;;5054503;28;20645;-90
2022/10/29 17:37:33;;;;;;;17.63;6.50;;;17.00;79.30;;;;;;5050081;28;20285;-89
2022/10/29 17:40:13;;;;;;;17.98;7.72;;;16.90;81.00;;;;;;5048748;28;20218;-91
2022/10/29 17:42:40;;;;;;;21.50;12.30;;;16.80;81.30;;;;;;5050584;28;20665;-90
2022/10/29 17:45:09;;;;;;;15.43;6.38;;;16.80;83.00;;;;;;5045635;28;20233;-90
2022/10/29 17:47:43;;;;;;;16.52;4.68;;;16.70;83.80;;;;;;5042850;28;20220;-89
2022/10/29 17:50:10;;;;;;;20.40;9.60;;;16.70;83.50;;;;;;5046993;28;20237;-89
2022/10/29 17:52:37;;;;;;;15.57;7.50;;;16.60;85.50;;;;;;5048567;28;20289;-88
2022/10/29 17:55:05;;;;;;;17.58;6.00;;;16.50;86.30;;;;;;5050327;28;20214;-90
2022/10/29 17:57:32;;;;;;;10.27;5.03;;;16.40;86.50;;;;;;5056104;28;20221;-89
2022/10/29 17:59:59;;;;;;;16.45;5.32;;;16.30;86.30;;;;;;5048183;28;20210;-90
2022/10/29 18:02:26;;;;;;;17.83;6.82;;;16.30;86.00;;;;;;5040301;28;20340;-90
2022/10/29 18:04:54;;;;;;;12.63;5.40;;;16.30;85.90;;;;;;5052926;28;20313;-89
2022/10/29 18:07:21;;;;;;;13.45;5.07;;;16.30;86.90;;;;;;5052722;28;20270;-90
2022/10/29 18:09:48;;;;;;;15.60;5.13;;;16.30;86.00;;;;;;5057578;28;20291;-89
2022/10/29 18:12:15;;;;;;;16.42;6.32;;;16.20;87.40;;;;;;5055440;28;20673;-90
2022/10/29 18:14:42;;;;;;;13.57;5.88;;;16.20;86.70;;;;;;5055797;28;20230;-88
2022/10/29 18:17:12;;;;;;;12.13;5.50;;;16.20;87.80;;;;;;5052759;28;20638;-89
2022/10/29 18:19:47;;;;;;;11.38;5.07;;;16.10;88.30;;;;;;5057131;28;20218;-89
2022/10/29 18:22:25;;;;;;;15.77;5.60;;;16.00;88.40;;;;;;5051581;28;20717;-90
2022/10/29 18:25:03;;;;;;;12.48;5.93;;;16.00;89.00;;;;;;5058939;28;20217;-90
2022/10/29 18:27:36;;;;;;;13.77;6.00;;;15.90;89.00;;;;;;5043757;28;20199;-89
2022/10/29 18:30:03;;;;;;;14.15;5.38;;;15.90;89.20;;;;;;5045937;28;20237;-92
2022/10/29 18:32:31;;;;;;;11.23;5.90;;;15.90;89.60;;;;;;5044897;28;20585;-90
2022/10/29 18:35:08;;;;;;;18.63;6.78;;;15.90;89.80;;;;;;5055248;28;20288;-89
2022/10/29 18:38:08;;;;;;;13.63;7.68;;;15.90;90.20;;;;;;5056984;28;20213;-89
2022/10/29 18:40:57;;;;;;;16.80;7.53;;;15.80;90.40;;;;;;5055304;28;20234;-89
2022/10/29 18:44:12;;;;;;;13.18;5.90;;;15.80;90.60;;;;;;5065898;28;20229;-90
2022/10/29 18:46:43;;;;;;;14.68;7.13;;;15.80;90.60;;;;;;5063185;28;20218;-89
2022/10/29 18:49:19;;;;;;;13.20;5.88;;;15.80;91.00;;;;;;5062025;28;20715;-89
2022/10/29 18:52:00;;;;;;;16.75;5.60;;;15.70;90.80;;;;;;5059801;28;20732;-89
2022/10/29 18:54:36;;;;;;;13.25;5.68;;;15.60;91.30;;;;;;5051511;28;20220;-90
2022/10/29 18:57:53;;;;;;;11.88;5.45;;;15.50;91.60;;;;;;5063514;28;20252;-91
2022/10/29 19:00:48;;;;;;;16.65;5.70;;;15.40;91.60;;;;;;5050277;28;20293;-89
2022/10/29 19:03:15;;;;;;;13.85;6.15;;;15.50;91.60;;;;;;5049423;28;20749;-89
2022/10/29 19:05:43;;;;;;;19.90;11.52;;;15.50;91.60;;;;;;5054430;28;20667;-90
2022/10/29 19:08:17;;;;;;;18.52;9.27;;;15.60;91.60;;;;;;5048281;28;20250;-89
2022/10/29 19:10:49;;;;;;;16.85;8.07;;;15.60;91.60;;;;;;5053878;28;20216;-90
2022/10/29 19:13:16;;;;;;;16.17;6.97;;;15.70;91.90;;;;;;5056121;28;20665;-91
2022/10/29 19:19:11;;;;;;;19.55;9.50;;;15.60;91.60;;;;;;5055899;28;20212;-91
2022/10/29 19:25:12;;;;;;;19.73;8.52;;;15.50;91.80;;;;;;5043874;28;20215;-91
2022/10/29 19:28:06;;;;;;;16.75;6.30;;;15.50;91.60;;;;;;5053497;28;20290;-90
2022/10/29 19:30:36;;;;;;;19.02;7.05;;;15.40;91.60;;;;;;5047188;28;20669;-90
2022/10/29 19:33:18;;;;;;;17.00;8.77;;;15.40;91.60;;;;;;5048265;28;20286;-90
2022/10/29 19:36:08;;;;;;;14.10;6.38;;;15.40;92.10;;;;;;5041679;28;20206;-90
2022/10/29 19:38:42;;;;;;;16.05;6.97;;;15.30;92.20;;;;;;5049191;28;20420;-88
2022/10/29 19:41:10;;;;;;;18.45;11.02;;;15.20;92.30;;;;;;5042358;28;20277;-90
2022/10/29 19:44:00;;;;;;;14.75;7.35;;;15.20;92.70;;;;;;5051869;28;20202;-90
2022/10/29 19:46:28;;;;;;;14.98;8.32;;;15.30;92.60;;;;;;5052780;28;20202;-89
2022/10/29 19:48:57;;;;;;;14.20;9.68;;;15.20;92.60;;;;;;5046725;28;20264;-89
2022/10/29 19:51:25;;;;;;;12.75;5.78;;;15.20;92.70;;;;;;5049041;28;20437;-88
2022/10/29 19:53:53;;;;;;;16.10;5.43;;;15.10;92.70;;;;;;5041427;28;20594;-90
2022/10/29 19:56:20;;;;;;;10.60;4.95;;;15.00;93.00;;;;;;5051676;28;20248;-90
2022/10/29 19:58:47;;;;;;;16.88;6.10;;;14.80;93.50;;;;;;5053161;28;20662;-90
2022/10/29 20:01:16;;;;;;;12.90;4.90;;;14.70;94.00;;;;;;5048459;28;20741;-90
2022/10/29 20:03:48;;;;;;;17.35;7.90;;;14.70;94.20;;;;;;5053872;28;20293;-91
2022/10/29 20:06:16;;;;;;;15.48;6.40;;;14.70;94.50;;;;;;5011681;28;1191575;-90
2022/10/29 20:08:44;;;;;;;18.50;6.70;;;14.80;94.10;;;;;;5059522;28;20206;-89
2022/10/29 20:11:11;;;;;;;14.77;5.65;;;14.80;94.00;;;;;;5052942;28;20269;-90
2022/10/29 20:14:17;;;;;;;11.02;4.70;;;14.80;93.90;;;;;;5046671;28;20672;-90
2022/10/29 20:16:44;;;;;;;16.67;6.00;;;14.60;94.10;;;;;;5045642;28;20332;-91
2022/10/29 20:19:12;;;;;;;16.58;4.88;;;14.60;94.60;;;;;;5040114;28;20289;-91
2022/10/29 20:21:39;;;;;;;13.70;5.05;;;14.60;94.70;;;;;;5052093;28;20207;-90
2022/10/29 20:24:08;;;;;;;16.70;7.88;;;14.50;94.90;;;;;;5048512;28;20229;-90
2022/10/29 20:26:36;;;;;;;20.20;7.38;;;14.60;94.80;;;;;;5052136;28;20286;-91
2022/10/29 20:29:06;;;;;;;12.32;6.53;;;14.60;94.60;;;;;;5051497;28;20681;-90
2022/10/29 20:31:36;;;;;;;13.10;5.57;;;14.60;94.30;;;;;;5053529;28;20237;-90
2022/10/29 20:34:06;;;;;;;17.40;8.10;;;14.70;94.30;;;;;;5048350;28;20248;-90
2022/10/29 20:36:33;;;;;;;11.90;5.97;;;14.60;94.30;;;;;;5043326;28;20348;-90
2022/10/29 20:39:00;;;;;;;11.40;4.93;;;14.60;94.20;;;;;;5042529;28;20621;-90
2022/10/29 20:41:29;;;;;;;11.77;6.72;;;14.50;94.50;;;;;;5041716;28;20316;-90
2022/10/29 20:43:59;;;;;;;17.27;5.60;;;14.50;94.70;;;;;;5046359;28;20210;-91
2022/10/29 20:46:27;;;;;;;17.75;5.47;;;14.40;94.90;;;;;;5025740;28;20206;-91
2022/10/29 20:48:54;;;;;;;15.38;5.80;;;14.30;95.20;;;;;;5041818;28;20676;-91
2022/10/29 20:51:22;;;;;;;14.35;5.60;;;14.20;95.40;;;;;;5053021;28;20687;-90
2022/10/29 20:53:49;;;;;;;11.93;4.93;;;14.20;95.50;;;;;;5044634;28;20198;-89
2022/10/29 20:56:18;;;;;;;11.35;5.10;;;14.20;95.80;;;;;;5044569;28;20292;-90
2022/10/29 20:58:47;;;;;;;15.20;5.32;;;14.20;96.10;;;;;;5042909;28;20212;-90
2022/10/29 21:01:15;;;;;;;16.38;5.22;;;14.10;95.80;;;;;;5043205;28;20526;-90
2022/10/29 21:03:43;;;;;;;14.88;6.55;;;14.10;96.00;;;;;;5044617;28;20234;-89
2022/10/29 21:06:12;;;;;;;12.07;5.63;;;14.00;96.10;;;;;;5046227;28;20693;-90
2022/10/29 21:09:21;;;;;;;10.65;5.35;;;14.00;96.00;;;;;;5043730;28;20682;-90
2022/10/29 21:11:48;;;;;;;14.70;4.90;;;13.90;96.30;;;;;;5048412;28;20206;-92
2022/10/29 21:14:16;;;;;;;16.00;5.60;;;13.90;96.40;;;;;;5052648;28;20387;-89
2022/10/29 21:16:43;;;;;;;9.10;5.20;;;13.90;96.60;;;;;;5031646;28;20284;-90
2022/10/29 21:19:10;;;;;;;16.48;5.68;;;13.80;96.60;;;;;;5042448;28;20294;-90
2022/10/29 21:21:38;;;;;;;13.43;5.47;;;13.80;96.60;;;;;;5035900;28;20628;-90
2022/10/29 21:24:06;;;;;;;15.48;4.88;;;13.80;96.60;;;;;;5047807;28;20197;-91
2022/10/29 21:26:33;;;;;;;10.07;4.88;;;13.80;96.60;;;;;;5049188;28;20281;-90
2022/10/29 21:28:59;;;;;;;10.48;5.05;;;13.70;96.60;;;;;;5049047;28;20290;-90
2022/10/29 21:31:28;;;;;;;12.43;5.40;;;13.70;96.60;;;;;;5050504;28;20543;-90
2022/10/29 21:37:24;;;;;;;11.77;4.65;;;13.60;96.60;;;;;;5043920;28;20585;-89
2022/10/29 21:40:00;;;;;;;11.35;5.15;;;13.50;96.60;;;;;;5054754;28;20291;-89
2022/10/29 21:42:42;;;;;;;10.05;4.75;;;13.40;96.80;;;;;;5053969;28;20277;-90
2022/10/29 21:45:10;;;;;;;12.18;4.55;;;13.40;96.90;;;;;;5047358;28;20297;-91
2022/10/29 21:47:38;;;;;;;13.68;4.63;;;13.40;96.50;;;;;;5049854;28;20626;-90
2022/10/29 21:50:08;;;;;;;15.05;5.80;;;13.50;96.60;;;;;;5049552;28;20206;-90
2022/10/29 21:52:48;;;;;;;17.73;5.15;;;13.50;96.50;;;;;;5040807;28;20305;-90
2022/10/29 21:55:15;;;;;;;14.27;5.00;;;13.50;96.50;;;;;;5052508;28;20241;-89
2022/10/29 22:01:18;;;;;;;14.60;5.40;;;13.50;96.50;;;;;;5054647;28;20207;-89
2022/10/29 22:03:50;;;;;;;10.75;5.40;;;13.40;96.60;;;;;;5058892;28;20201;-88
2022/10/29 22:06:25;;;;;;;16.77;5.90;;;13.30;97.20;;;;;;5066713;28;20297;-90
2022/10/29 22:08:54;;;;;;;14.30;5.00;;;13.30;97.10;;;;;;5063707;28;20197;-89
2022/10/29 22:11:21;;;;;;;11.75;4.50;;;13.20;97.10;;;;;;5065572;28;20201;-90
2022/10/29 22:13:48;;;;;;;14.15;4.70;;;13.20;97.00;;;;;;5050930;28;20281;-89
2022/10/29 22:19:44;;;;;;;16.48;5.70;;;13.20;96.90;;;;;;5053833;28;20197;-89
2022/10/29 22:22:11;;;;;;;12.93;4.78;;;13.10;96.80;;;;;;5057319;28;20262;-90
2022/10/29 22:24:48;;;;;;;18.88;4.68;;;13.10;96.80;;;;;;5057210;28;20589;-90
2022/10/29 22:27:15;;;;;;;9.10;4.00;;;13.00;96.80;;;;;;5057812;28;20221;-91
2022/10/29 22:33:04;;;;;;;11.50;5.57;;;12.90;97.20;;;;;;5056362;28;20193;-88
2022/10/29 22:39:03;;;;;;;18.63;4.90;;;12.90;97.10;;;;;;5061519;28;20266;-88
2022/10/29 22:41:36;;;;;;;13.25;4.53;;;12.90;96.90;;;;;;5060685;28;20277;-88
2022/10/29 22:44:42;;;;;;;11.40;5.10;;;12.90;96.70;;;;;;5062727;28;20234;-88
2022/10/29 22:50:38;;;;;;;12.82;4.20;;;12.80;97.00;;;;;;5052078;28;20194;-89
2022/10/29 22:56:32;;;;;;;11.80;4.72;;;12.80;96.60;;;;;;5064941;28;20170;-89
2022/10/29 22:59:30;;;;;;;9.27;4.82;;;12.80;96.80;;;;;;5069415;28;20253;-89
2022/10/29 23:02:12;;;;;;;11.20;4.70;;;12.80;96.90;;;;;;5070444;28;20198;-88
2022/10/29 23:05:30;;;;;;;7.60;4.28;;;12.70;97.10;;;;;;5069827;28;20692;-88
2022/10/29 23:07:57;;;;;;;11.05;4.55;;;12.70;97.20;;;;;;5070213;28;20224;-88
2022/10/29 23:11:15;;;;;;;14.45;6.00;;;12.70;97.30;;;;;;5068077;28;20255;-88
2022/10/29 23:20:35;;;;;;;13.23;4.90;;;12.60;97.60;;;;;;5073038;28;20212;-88
2022/10/29 23:26:33;;;;;;;13.75;5.10;;;12.50;97.60;;;;;;5060402;28;20173;-88